createdAt,value
2022-09-16T00:00:38.702Z,2.30
2022-09-16T00:05:47.394Z,2.37
2022-09-16T00:10:52.927Z,1.80
2022-09-16T00:15:58.270Z,3.00
2022-09-16T00:21:05.374Z,2.50
2022-09-16T00:26:10.801Z,4.27
2022-09-16T00:31:16.433Z,4.03
2022-09-16T00:36:22.247Z,4.93
2022-09-16T00:41:31.888Z,5.77
2022-09-16T00:46:48.507Z,6.13
2022-09-16T00:51:56.692Z,6.17
2022-09-16T00:57:03.470Z,6.20
2022-09-16T01:02:11.877Z,6.50
2022-09-16T01:07:19.326Z,5.00
2022-09-16T01:12:25.460Z,3.57
2022-09-16T01:17:51.883Z,11.37
2022-09-16T01:23:08.804Z,6.53
2022-09-16T01:28:22.915Z,5.90
2022-09-16T01:33:43.415Z,5.63
2022-09-16T01:39:08.296Z,6.17
2022-09-16T01:44:22.458Z,8.60
2022-09-16T01:50:03.897Z,6.73
2022-09-16T01:55:21.244Z,5.63
2022-09-16T02:00:26.670Z,4.13
2022-09-16T02:05:45.523Z,7.37
2022-09-16T02:10:53.828Z,5.20
2022-09-16T02:16:02.884Z,6.10
2022-09-16T02:21:12.029Z,3.73
2022-09-16T02:26:21.335Z,3.57
2022-09-16T02:31:32.418Z,5.27
2022-09-16T02:36:43.239Z,3.30
2022-09-16T02:47:34.788Z,8.27
2022-09-16T02:53:05.379Z,4.90
2022-09-16T02:58:17.801Z,11.30
2022-09-16T03:03:47.881Z,4.93
2022-09-16T03:14:53.301Z,6.63
2022-09-16T03:20:21.528Z,5.53
2022-09-16T03:31:45.795Z,4.60
2022-09-16T03:37:12.790Z,4.10
2022-09-16T03:42:44.626Z,4.27
2022-09-16T03:47:56.893Z,3.00
2022-09-16T03:53:28.991Z,3.20
2022-09-16T04:04:33.496Z,3.13
2022-09-16T04:09:52.429Z,5.27
2022-09-16T04:15:27.795Z,5.00
2022-09-16T04:26:22.372Z,4.60
2022-09-16T04:31:42.616Z,3.07
2022-09-16T04:37:02.168Z,3.63
2022-09-16T04:42:09.807Z,4.60
2022-09-16T04:47:18.925Z,4.97
2022-09-16T04:52:39.851Z,4.63
2022-09-16T05:04:04.087Z,3.03
2022-09-16T05:15:01.336Z,2.60
2022-09-16T05:25:45.751Z,4.40
2022-09-16T05:31:03.934Z,3.53
2022-09-16T05:36:18.899Z,1.80
2022-09-16T05:41:33.063Z,3.20
2022-09-16T05:47:16.543Z,3.10
2022-09-16T05:52:30.608Z,3.13
2022-09-16T05:57:40.112Z,2.00
2022-09-16T06:02:49.638Z,4.50
2022-09-16T06:08:00.708Z,3.60
2022-09-16T06:13:10.769Z,3.57
2022-09-16T06:18:31.454Z,2.53
2022-09-16T06:23:42.542Z,3.67
2022-09-16T06:29:03.625Z,2.13
2022-09-16T06:34:19.049Z,2.03
2022-09-16T06:39:26.919Z,1.93
2022-09-16T06:44:51.500Z,1.10
2022-09-16T06:50:02.405Z,2.57
2022-09-16T06:55:23.343Z,2.27
2022-09-16T07:00:41.772Z,2.40
2022-09-16T07:06:11.784Z,2.90
2022-09-16T07:11:24.465Z,3.20
2022-09-16T07:16:37.598Z,3.37
2022-09-16T07:21:58.418Z,3.57
2022-09-16T07:27:04.117Z,1.60
2022-09-16T07:32:11.020Z,2.37
2022-09-16T07:37:18.022Z,1.73
2022-09-16T07:42:37.099Z,3.10
2022-09-16T07:48:09.881Z,2.50
2022-09-16T07:53:52.074Z,1.50
2022-09-16T07:59:38.344Z,2.50
2022-09-16T08:05:01.392Z,2.10
2022-09-16T08:10:32.260Z,1.60
2022-09-16T08:15:38.803Z,1.27
2022-09-16T08:20:44.466Z,1.53
2022-09-16T08:25:52.177Z,1.40
2022-09-16T08:31:00.945Z,1.40
2022-09-16T08:36:20.896Z,1.47
2022-09-16T08:41:44.423Z,1.47
2022-09-16T08:47:10.798Z,1.47
2022-09-16T08:52:26.608Z,1.57
2022-09-16T08:57:35.036Z,1.43
2022-09-16T09:02:58.623Z,1.23
2022-09-16T09:08:10.563Z,2.23
2022-09-16T09:13:40.161Z,1.70
2022-09-16T09:19:00.550Z,1.50
2022-09-16T09:24:15.540Z,3.33
2022-09-16T09:29:26.877Z,1.50
2022-09-16T09:34:52.443Z,1.07
2022-09-16T09:40:20.265Z,1.03
2022-09-16T09:45:31.592Z,1.87
2022-09-16T09:50:40.872Z,2.60
2022-09-16T09:55:47.896Z,2.87
2022-09-16T10:00:55.486Z,2.50
2022-09-16T10:06:00.897Z,1.23
2022-09-16T10:11:21.209Z,0.93
2022-09-16T10:16:35.369Z,0.90
2022-09-16T10:21:45.795Z,0.97
2022-09-16T10:26:55.288Z,1.07
2022-09-16T10:32:09.223Z,1.30
2022-09-16T10:37:17.668Z,1.17
2022-09-16T10:42:27.549Z,1.37
2022-09-16T10:47:36.518Z,1.13
2022-09-16T10:52:48.204Z,1.43
2022-09-16T10:58:11.485Z,1.20
2022-09-16T11:03:50.231Z,0.70
2022-09-16T11:09:21.633Z,1.23
2022-09-16T11:14:42.434Z,1.10
2022-09-16T11:20:03.013Z,0.90
2022-09-16T11:25:27.630Z,1.30
2022-09-16T11:30:36.131Z,1.00
2022-09-16T11:36:14.163Z,1.17
2022-09-16T11:41:44.933Z,1.80
2022-09-16T11:47:00.279Z,0.67
2022-09-16T11:52:11.655Z,0.90
2022-09-16T11:57:22.900Z,1.53
2022-09-16T12:02:35.922Z,1.90
2022-09-16T12:08:03.519Z,2.40
2022-09-16T12:13:48.343Z,2.50
2022-09-16T12:18:59.653Z,1.53
2022-09-16T12:24:25.663Z,1.20
2022-09-16T12:29:59.059Z,1.30
2022-09-16T12:35:07.675Z,0.63
2022-09-16T12:40:19.864Z,1.10
2022-09-16T12:45:48.394Z,0.97
2022-09-16T12:51:08.275Z,1.27
2022-09-16T12:56:46.846Z,1.63
2022-09-16T13:02:06.357Z,2.13
2022-09-16T13:07:36.478Z,1.20
2022-09-16T13:12:44.943Z,1.10
2022-09-16T13:17:52.692Z,1.70
2022-09-16T13:23:17.568Z,0.87
2022-09-16T13:28:48.548Z,3.27
2022-09-16T13:34:07.393Z,0.93
2022-09-16T13:39:21.224Z,0.90
2022-09-16T13:44:46.516Z,0.70
2022-09-16T13:50:19.714Z,1.40
2022-09-16T13:55:44.303Z,2.73
2022-09-16T14:01:07.424Z,1.80
2022-09-16T14:13:10.225Z,1.17
2022-09-16T14:18:20.479Z,0.80
2022-09-16T14:23:30.354Z,1.80
2022-09-16T14:28:42.686Z,1.00
2022-09-16T14:33:55.783Z,0.90
2022-09-16T14:39:01.825Z,1.50
2022-09-16T14:44:35.410Z,2.60
2022-09-16T14:49:41.162Z,1.10
2022-09-16T14:54:52.248Z,1.93
2022-09-16T15:00:01.800Z,1.40
2022-09-16T15:05:29.236Z,1.00
2022-09-16T15:10:55.231Z,1.10
2022-09-16T15:15:56.071Z,0.70
2022-09-16T15:26:48.942Z,1.07
2022-09-16T15:31:57.681Z,1.25
2022-09-16T15:37:03.544Z,2.97
2022-09-16T15:42:25.888Z,1.27
2022-09-16T15:47:37.190Z,0.90
2022-09-16T15:53:07.376Z,0.70
2022-09-16T15:58:18.736Z,1.40
2022-09-16T16:03:25.492Z,0.70
2022-09-16T16:08:38.913Z,0.90
2022-09-16T16:13:44.967Z,0.93
2022-09-16T16:18:50.229Z,0.97
2022-09-16T16:23:55.540Z,0.87
2022-09-16T16:29:02.230Z,1.30
2022-09-16T16:34:07.577Z,0.90
2022-09-16T16:39:18.856Z,0.90
2022-09-16T16:44:37.959Z,0.77
2022-09-16T16:50:10.712Z,1.20
2022-09-16T16:54:59.973Z,0.70
2022-09-16T17:05:37.870Z,1.50
2022-09-16T17:10:44.846Z,1.90
2022-09-16T17:15:52.806Z,2.40
2022-09-16T17:21:11.178Z,2.10
2022-09-16T17:26:16.732Z,2.30
2022-09-16T17:31:28.310Z,2.77
2022-09-16T17:36:36.264Z,8.13
2022-09-16T17:41:43.968Z,7.73
2022-09-16T17:46:49.998Z,8.13
2022-09-16T17:51:56.226Z,4.57
2022-09-16T17:57:01.684Z,2.50
2022-09-16T18:02:12.335Z,1.90
2022-09-16T18:07:20.904Z,1.43
2022-09-16T18:12:26.206Z,2.27
2022-09-16T18:17:31.314Z,1.67
2022-09-16T18:22:36.440Z,2.10
2022-09-16T18:27:44.418Z,5.30
2022-09-16T18:33:00.074Z,3.93
2022-09-16T18:38:27.533Z,2.67
2022-09-16T18:44:08.083Z,1.63
2022-09-16T18:49:25.522Z,2.03
2022-09-16T18:54:36.336Z,1.70
2022-09-16T18:59:42.425Z,1.30
2022-09-16T19:05:01.402Z,1.50
2022-09-16T19:10:07.376Z,1.80
2022-09-16T19:15:34.227Z,3.17
2022-09-16T19:20:49.180Z,6.80
2022-09-16T19:26:11.661Z,3.13
2022-09-16T19:31:17.804Z,3.00
2022-09-16T19:36:26.726Z,2.17
2022-09-16T19:41:44.536Z,2.00
2022-09-16T19:46:50.338Z,2.80
2022-09-16T19:52:03.239Z,2.63
2022-09-16T19:57:21.318Z,2.70
2022-09-16T20:02:28.251Z,2.43
2022-09-16T20:07:37.971Z,2.30
2022-09-16T20:12:43.095Z,2.47
2022-09-16T20:17:57.561Z,2.40
2022-09-16T20:23:09.689Z,2.00
2022-09-16T20:45:55.259Z,2.10
2022-09-16T20:51:07.691Z,1.90
2022-09-16T20:56:16.523Z,1.83
2022-09-16T21:01:32.702Z,1.90
2022-09-16T21:06:38.482Z,2.13
2022-09-16T21:11:45.292Z,1.60
2022-09-16T21:16:53.009Z,1.50
2022-09-16T21:21:58.333Z,1.60
2022-09-16T21:27:07.714Z,1.80
2022-09-16T21:32:15.209Z,1.93
2022-09-16T21:37:21.307Z,1.77
2022-09-16T21:42:27.590Z,2.00
2022-09-16T21:47:34.097Z,2.90
2022-09-16T21:52:39.406Z,1.73
2022-09-16T21:57:44.835Z,2.50
2022-09-16T22:02:50.224Z,1.87
2022-09-16T22:07:55.439Z,1.87
2022-09-16T22:13:01.675Z,2.47
2022-09-16T22:18:07.029Z,2.27
2022-09-16T22:23:13.724Z,1.80
2022-09-16T22:28:18.797Z,2.33
2022-09-16T22:33:26.234Z,2.53
2022-09-16T22:38:34.412Z,3.50
2022-09-16T22:43:41.735Z,2.30
2022-09-16T22:48:58.388Z,3.40
2022-09-16T22:54:32.893Z,2.37
2022-09-16T23:00:00.819Z,2.00
2022-09-16T23:05:08.395Z,1.83
2022-09-16T23:10:48.456Z,1.73
2022-09-16T23:15:56.141Z,2.10
2022-09-16T23:21:06.366Z,1.77
2022-09-16T23:26:22.436Z,1.87
2022-09-16T23:31:31.616Z,1.70
2022-09-16T23:36:40.823Z,2.33
2022-09-16T23:41:49.969Z,2.50
2022-09-16T23:46:55.228Z,2.83
2022-09-16T23:52:00.869Z,3.30
2022-09-16T23:57:13.680Z,2.43
